Tessenderlo, Belgium
Current Conditions -  °F | °C
As of 11:25 AM on Saturday 01 Nov 2014 (Local Time) from EBDT Reporting Station
Broken Clouds Broken Clouds  
Wind Chill: 64°   Ceiling: 14000
Heat Index: 64°   Visibility: 6mi
Dew Point: 52°   Wind: 8mph
Humidity: 64%   Direction: 180°S
Pressure: 30.09"   Gusts: NA
Location:  51.07°N, 5.09°E
Report Text: EBDT 011025Z AUTO 18007KT 9999 BKN140/// 18/11 Q1019 BLU
Loading
Personal Weather Stations






























Interactive Weather Map
Tropical Storm Tracking
New forecast layout! Learn more

10-Day Weather Forecast

Advertisements
Track Severe Weather on mobile